^^
Saratoga-Weather Station Historical Data
Daily Summary for March 3, 2020 Units:  English    Metric   Both
Daily Weekly Monthly Yearly Custom
  High: Low: Average:
Temperature: 48.6 °F 40.8 °F 45.3 °F
Dew Point: 47.5 °F 40.3 °F 43.7 °F
Humidity: 98% 88% 94%
Wind Speed: 11mph 0mph 1.8mph
Wind Gust: 15mph - -
Wind- - South
Pressure: 30.4 in 30.2 in -
Precipitation: 0.1 in    
Historical Graphs
 
 
Tabular Data for March 3, 2020
Time Temperature Dew Point Pressure Wind Wind Speed Wind Gust Humidity Rainfall Rate (Hourly) solar
00:02 40.8 °F 40.3 °F 30.3 in ENE 2 mph 2 mph 98% 0 in 0 W/m2
00:07 41 °F 40.5 °F 30.3 in NNE 2 mph 3 mph 98% 0 in 0 W/m2
00:12 41 °F 40.5 °F 30.3 in East 6.9 mph 7 mph 98% 0 in 0 W/m2
00:17 41.2 °F 40.6 °F 30.3 in ENE 0.9 mph 3 mph 98% 0 in 0 W/m2
00:22 41.2 °F 40.6 °F 30.3 in North 0.9 mph 5 mph 98% 0 in 0 W/m2
00:27 41.2 °F 40.6 °F 30.3 in Calm   11 mph 98% 0 in 0 W/m2
00:32 41.2 °F 40.5 °F 30.3 in Calm   4 mph 97% 0 in 0 W/m2
00:37 41.2 °F 40.5 °F 30.3 in South 2 mph 4 mph 97% 0 in 0 W/m2
00:42 41.2 °F 40.5 °F 30.3 in WNW 2.9 mph 4 mph 97% 0 in 0 W/m2
00:47 41.2 °F 40.5 °F 30.3 in West 6.9 mph 8 mph 97% 0 in 0 W/m2
00:52 41.4 °F 40.6 °F 30.3 in WNW 2 mph 4 mph 97% 0 in 0 W/m2
00:57 41.4 °F 40.6 °F 30.3 in SSW 2 mph 7 mph 97% 0 in 0 W/m2
01:02 41.4 °F 40.6 °F 30.3 in WNW 0.9 mph 5 mph 97% 0 in 0 W/m2
01:07 41.4 °F 40.6 °F 30.3 in SSW 2 mph 4 mph 97% 0 in 0 W/m2
01:12 41.5 °F 40.8 °F 30.3 in South 0.9 mph 5 mph 97% 0 in 0 W/m2
01:17 41.5 °F 40.8 °F 30.3 in NW 2 mph 3 mph 97% 0 in 0 W/m2
01:22 41.5 °F 40.8 °F 30.3 in East 2 mph 2 mph 97% 0 in 0 W/m2
01:27 41.5 °F 40.8 °F 30.3 in WNW 0.9 mph 3 mph 97% 0 in 0 W/m2
01:32 41.5 °F 40.8 °F 30.2 in WNW 0.9 mph 4 mph 97% 0 in 0 W/m2
01:37 41.7 °F 41 °F 30.2 in NE 4 mph 4 mph 97% 0 in 0 W/m2
01:43 41.7 °F 41 °F 30.2 in West 6.9 mph 8 mph 97% 0 in 0 W/m2
01:48 41.7 °F 41 °F 30.2 in West 8.1 mph 9 mph 97% 0 in 0 W/m2
01:53 41.9 °F 41.2 °F 30.2 in South 2 mph 3 mph 97% 0 in 0 W/m2
01:58 42.1 °F 41 °F 30.2 in NNW 2 mph 9 mph 96% 0 in 0 W/m2
02:03 42.1 °F 41 °F 30.2 in NE 2 mph 3 mph 96% 0 in 0 W/m2
02:08 42.1 °F 41 °F 30.2 in NE 4.9 mph 5 mph 96% 0 in 0 W/m2
02:13 42.3 °F 41.2 °F 30.2 in ENE 2 mph 2 mph 96% 0 in 0 W/m2
02:18 42.3 °F 41.2 °F 30.2 in NNW 0.9 mph 3 mph 96% 0 in 0 W/m2
02:23 42.3 °F 41.2 °F 30.2 in Calm   5 mph 96% 0 in 0 W/m2
02:28 42.3 °F 41.2 °F 30.2 in WNW 4.9 mph 5 mph 96% 0 in 0 W/m2
02:33 42.3 °F 41.2 °F 30.2 in NW 2 mph 4 mph 96% 0 in 0 W/m2
02:38 42.4 °F 41.4 °F 30.2 in ESE 6 mph 8 mph 96% 0 in 0 W/m2
02:43 42.4 °F 41.4 °F 30.2 in WSW 0.9 mph 6 mph 96% 0 in 0 W/m2
02:48 42.4 °F 41.4 °F 30.2 in NW 0.9 mph 8 mph 96% 0 in 0 W/m2
02:53 42.6 °F 41.5 °F 30.2 in East 2 mph 2 mph 96% 0 in 0 W/m2
02:58 42.6 °F 41.5 °F 30.2 in WNW 2 mph 3 mph 96% 0 in 0 W/m2
03:03 42.8 °F 41.5 °F 30.2 in East 2.9 mph 6 mph 95% 0 in 0 W/m2
03:08 42.8 °F 41.5 °F 30.2 in ENE 2 mph 3 mph 95% 0 in 0 W/m2
03:13 42.8 °F 41.5 °F 30.2 in Calm   4 mph 95% 0 in 0 W/m2
03:18 42.8 °F 41.5 °F 30.2 in ESE 2 mph 4 mph 95% 0 in 0 W/m2
03:23 42.8 °F 41.5 °F 30.2 in ENE 2 mph 3 mph 95% 0 in 0 W/m2
03:28 42.8 °F 41.5 °F 30.2 in ENE 4 mph 4 mph 95% 0 in 0 W/m2
03:33 43 °F 41.7 °F 30.2 in East 0.9 mph 4 mph 95% 0 in 0 W/m2
03:38 43 °F 41.7 °F 30.2 in NE 0.9 mph 2 mph 95% 0 in 0 W/m2
03:43 43 °F 41.7 °F 30.2 in East 4 mph 7 mph 95% 0 in 0 W/m2
03:48 43.2 °F 41.9 °F 30.2 in ENE 2 mph 6 mph 95% 0 in 0 W/m2
03:53 43.2 °F 41.9 °F 30.2 in ENE 2 mph 4 mph 95% 0 in 0 W/m2
03:58 43.3 °F 42.1 °F 30.2 in NE 2 mph 3 mph 95% 0 in 0 W/m2
04:03 43.3 °F 42.1 °F 30.2 in East 2 mph 3 mph 95% 0 in 0 W/m2
04:08 43.3 °F 41.7 °F 30.2 in East 2 mph 7 mph 94% 0 in 0 W/m2
04:13 43.3 °F 41.7 °F 30.2 in East 0.9 mph 4 mph 94% 0 in 0 W/m2
04:18 43.3 °F 41.7 °F 30.2 in WNW 2 mph 7 mph 94% 0 in 0 W/m2
04:23 43.3 °F 41.7 °F 30.2 in ESE 2.9 mph 6 mph 94% 0 in 0 W/m2
04:28 43.3 °F 41.7 °F 30.2 in East 2.9 mph 7 mph 94% 0 in 0 W/m2
04:33 43.2 °F 41.5 °F 30.2 in East 2 mph 3 mph 94% 0 in 0 W/m2
04:38 43.2 °F 41.5 °F 30.2 in ENE 4.9 mph 6 mph 94% 0 in 0 W/m2
04:43 43 °F 41.4 °F 30.2 in ENE 4 mph 5 mph 94% 0 in 0 W/m2
04:48 43.2 °F 41.5 °F 30.2 in East 2.9 mph 7 mph 94% 0 in 0 W/m2
04:53 43.2 °F 41.5 °F 30.2 in ENE 2.9 mph 5 mph 94% 0 in 0 W/m2
04:59 43.3 °F 41.7 °F 30.2 in NNW 0.9 mph 5 mph 94% 0 in 0 W/m2
05:04 43.3 °F 41.7 °F 30.2 in NE 6 mph 6 mph 94% 0 in 0 W/m2
05:09 43.5 °F 41.7 °F 30.2 in NW 2 mph 5 mph 93% 0 in 0 W/m2
05:14 43.9 °F 41.9 °F 30.2 in NNE 2.9 mph 3 mph 93% 0 in 0 W/m2
05:19 44.1 °F 41.9 °F 30.2 in North 2.9 mph 5 mph 92% 0 in 0 W/m2
05:24 44.2 °F 42.1 °F 30.2 in NNE 4 mph 5 mph 92% 0 in 0 W/m2
05:29 44.2 °F 41.7 °F 30.2 in ENE 4.9 mph 6 mph 91% 0 in 0 W/m2
05:34 44.2 °F 41.7 °F 30.2 in East 4 mph 4 mph 91% 0 in 0 W/m2
05:39 44.2 °F 41.7 °F 30.2 in ENE 0.9 mph 4 mph 91% 0 in 0 W/m2
05:44 44.2 °F 41.7 °F 30.2 in ENE 4 mph 7 mph 91% 0 in 0 W/m2
05:49 44.2 °F 41.7 °F 30.2 in ESE 2 mph 6 mph 91% 0 in 0 W/m2
05:55 44.2 °F 41.5 °F 30.2 in ENE 2.9 mph 4 mph 90% 0 in 0 W/m2
06:00 44.2 °F 41.5 °F 30.2 in East 6.9 mph 7 mph 90% 0 in 0 W/m2
06:05 44.2 °F 41.5 °F 30.2 in East 0.9 mph 4 mph 90% 0 in 0 W/m2
06:10 44.1 °F 41.5 °F 30.2 in ENE 2.9 mph 5 mph 91% 0 in 0 W/m2
06:15 44.2 °F 41.7 °F 30.2 in ESE 2 mph 4 mph 91% 0 in 0 W/m2
06:20 44.2 °F 41.5 °F 30.2 in ENE 4 mph 4 mph 90% 0 in 0 W/m2
06:25 44.2 °F 41.5 °F 30.2 in ENE 2 mph 6 mph 90% 0 in 0 W/m2
06:30 44.2 °F 41.5 °F 30.2 in NE 2.9 mph 6 mph 90% 0 in 0 W/m2
06:35 44.4 °F 41.7 °F 30.2 in East 2.9 mph 7 mph 90% 0 in 0 W/m2
06:40 44.4 °F 41.7 °F 30.2 in ENE 2 mph 9 mph 90% 0 in 0 W/m2
06:45 44.2 °F 41.5 °F 30.2 in East 4 mph 7 mph 90% 0 in 0 W/m2
06:50 44.4 °F 41.7 °F 30.2 in East 2.9 mph 9 mph 90% 0 in 0 W/m2
06:55 44.6 °F 41.5 °F 30.2 in NNE 2.9 mph 5 mph 89% 0 in 0 W/m2
07:01 44.8 °F 41.7 °F 30.2 in NNW 4 mph 9 mph 89% 0 in 0 W/m2
07:06 44.8 °F 41.7 °F 30.2 in North 8.1 mph 8 mph 89% 0 in 0 W/m2
07:11 44.8 °F 41.7 °F 30.2 in NW 4 mph 9 mph 89% 0 in 0 W/m2
07:16 44.8 °F 41.4 °F 30.2 in WNW 4.9 mph 5 mph 88% 0 in 0 W/m2
07:21 44.8 °F 41.4 °F 30.2 in WNW 2.9 mph 9 mph 88% 0 in 0 W/m2
07:26 44.8 °F 41.4 °F 30.2 in SE 0.9 mph 8 mph 88% 0 in 0 W/m2
07:31 44.8 °F 41.4 °F 30.2 in ENE 2.9 mph 9 mph 88% 0 in 0 W/m2
07:36 44.8 °F 41.4 °F 30.2 in NNE 2.9 mph 4 mph 88% 0 in 0 W/m2
07:41 44.8 °F 41.4 °F 30.2 in SE 0.9 mph 3 mph 88% 0 in 0 W/m2
07:46 44.8 °F 41.4 °F 30.2 in WNW 0.9 mph 7 mph 88% 0 in 0 W/m2
07:51 44.8 °F 41.4 °F 30.2 in NNE 2 mph 6 mph 88% 0 in 0 W/m2
07:56 44.6 °F 41.2 °F 30.2 in NE 2.9 mph 3 mph 88% 0 in 0 W/m2
08:01 44.6 °F 41.2 °F 30.2 in NE 2 mph 6 mph 88% 0 in 0 W/m2
08:06 44.4 °F 41.2 °F 30.2 in NNW 2.9 mph 10 mph 88% 0 in 0 W/m2
08:11 44.2 °F 41 °F 30.2 in NE 2 mph 5 mph 88% 0 in 0 W/m2
08:16 44.2 °F 41 °F 30.2 in NNW 2.9 mph 7 mph 88% 0 in 0 W/m2
08:21 44.2 °F 41 °F 30.2 in NNW 2.9 mph 6 mph 88% 0 in 0 W/m2
08:26 44.1 °F 40.8 °F 30.2 in East 2 mph 6 mph 88% 0 in 0 W/m2
08:31 44.1 °F 40.8 °F 30.2 in NNE 0.9 mph 8 mph 88% 0 in 0 W/m2
08:36 44.1 °F 40.8 °F 30.2 in North 2.9 mph 4 mph 88% 0 in 0 W/m2
08:42 43.9 °F 40.6 °F 30.2 in NNW 4 mph 11 mph 88% 0 in 0 W/m2
08:47 43.9 °F 40.8 °F 30.2 in NW 4 mph 5 mph 89% 0 in 0 W/m2
08:52 43.9 °F 40.8 °F 30.2 in NE 2.9 mph 11 mph 89% 0 in 0 W/m2
08:57 43.9 °F 40.8 °F 30.2 in NNW 4 mph 6 mph 89% 0 in 7 W/m2
09:02 43.9 °F 40.8 °F 30.2 in NW 2 mph 3 mph 89% 0 in 9 W/m2
09:07 43.9 °F 40.8 °F 30.2 in West 2.9 mph 5 mph 89% 0 in 14 W/m2
09:12 43.9 °F 40.8 °F 30.2 in NNW 4.9 mph 8 mph 89% 0 in 14 W/m2
09:17 43.9 °F 40.8 °F 30.2 in NW 2 mph 9 mph 89% 0 in 18 W/m2
09:22 43.9 °F 41.2 °F 30.2 in North 2 mph 3 mph 90% 0 in 23 W/m2
09:27 43.7 °F 41 °F 30.2 in West 6 mph 12 mph 90% 0 in 19 W/m2
09:32 43.9 °F 41.2 °F 30.2 in West 2 mph 4 mph 90% 0 in 14 W/m2
09:37 43.9 °F 41.2 °F 30.2 in WNW 8.1 mph 12 mph 90% 0 in 9 W/m2
09:42 43.9 °F 41.4 °F 30.2 in North 2.9 mph 4 mph 91% 0 in 11 W/m2
09:47 43.9 °F 41.4 °F 30.2 in NNW 4 mph 4 mph 91% 0 in 11 W/m2
09:52 43.9 °F 41.4 °F 30.2 in Calm   4 mph 91% 0 in 5 W/m2
09:57 43.9 °F 41.4 °F 30.2 in WSW 4 mph 8 mph 91% 0 in 14 W/m2
10:02 43.9 °F 41.4 °F 30.2 in NW 2 mph 5 mph 91% 0 in 21 W/m2
10:07 43.9 °F 41.4 °F 30.2 in SW 0.9 mph 6 mph 91% 0 in 19 W/m2
10:12 43.9 °F 41.7 °F 30.2 in NE 2 mph 6 mph 92% 0 in 14 W/m2
10:17 43.9 °F 41.7 °F 30.2 in WNW 0.9 mph 8 mph 92% 0 in 7 W/m2
10:22 43.9 °F 41.7 °F 30.2 in WNW 2.9 mph 4 mph 92% 0 in 14 W/m2
10:27 43.9 °F 41.7 °F 30.2 in NW 2 mph 8 mph 92% 0 in 16 W/m2
10:32 43.9 °F 41.9 °F 30.2 in WNW 2 mph 5 mph 93% 0 in 21 W/m2
10:37 43.9 °F 41.9 °F 30.2 in SSW 2.9 mph 5 mph 93% 0 in 25 W/m2
10:42 43.9 °F 41.9 °F 30.2 in ESE 0.9 mph 4 mph 93% 0 in 25 W/m2
10:47 43.9 °F 41.9 °F 30.2 in NNE 2 mph 3 mph 93% 0.01 in 16 W/m2
10:52 43.9 °F 42.3 °F 30.2 in NNW 0.9 mph 4 mph 94% 0.01 in 30 W/m2
10:57 43.9 °F 42.3 °F 30.2 in SW 2 mph 5 mph 94% 0.01 in 44 W/m2
11:02 44.1 °F 42.4 °F 30.2 in WNW 4 mph 13 mph 94% 0.01 in 51 W/m2
11:07 44.1 °F 42.4 °F 30.2 in WNW 2.9 mph 6 mph 94% 0.01 in 40 W/m2
11:12 44.2 °F 43 °F 30.2 in West 2 mph 12 mph 95% 0.02 in 30 W/m2
11:17 44.2 °F 43 °F 30.2 in West 2 mph 10 mph 95% 0.02 in 26 W/m2
11:22 44.4 °F 43.2 °F 30.2 in WNW 8.1 mph 10 mph 95% 0.02 in 26 W/m2
11:27 44.4 °F 43.2 °F 30.2 in NW 2.9 mph 10 mph 95% 0.02 in 26 W/m2
11:33 44.6 °F 43.3 °F 30.2 in NNW 4.9 mph 10 mph 95% 0.02 in 26 W/m2
11:38 44.6 °F 43.3 °F 30.2 in South 4 mph 6 mph 95% 0.02 in 23 W/m2
11:43 44.8 °F 43.5 °F 30.2 in WNW 6 mph 6 mph 95% 0.02 in 33 W/m2
11:48 44.8 °F 43.5 °F 30.2 in Calm   1 mph 95% 0.01 in 21 W/m2
11:53 44.8 °F 43.5 °F 30.2 in Calm   1 mph 95% 0.01 in 12 W/m2
11:58 44.8 °F 43.5 °F 30.2 in Calm     95% 0.02 in 12 W/m2
12:03 45 °F 43.7 °F 30.2 in WSW 4.9 mph 5 mph 95% 0.02 in 26 W/m2
12:08 45 °F 43.7 °F 30.2 in Calm   3 mph 95% 0.02 in 35 W/m2
12:13 45 °F 43.7 °F 30.2 in Calm     95% 0.01 in 35 W/m2
12:18 45.1 °F 43.9 °F 30.2 in Calm   4 mph 95% 0.01 in 40 W/m2
12:23 45.1 °F 43.9 °F 30.2 in Calm     95% 0.01 in 30 W/m2
12:28 45.3 °F 44.1 °F 30.2 in Calm   1 mph 95% 0.01 in 35 W/m2
12:33 45.5 °F 44.4 °F 30.2 in West 0.9 mph 2 mph 96% 0.01 in 35 W/m2
12:38 45.7 °F 44.6 °F 30.2 in WSW 8.9 mph 9 mph 96% 0.01 in 39 W/m2
12:43 45.7 °F 44.6 °F 30.2 in Calm   2 mph 96% 0.01 in 44 W/m2
12:48 45.9 °F 44.4 °F 30.2 in Calm   1 mph 95% 0.01 in 39 W/m2
12:53 45.9 °F 44.4 °F 30.2 in WSW 2.9 mph 9 mph 95% 0.01 in 30 W/m2
12:58 45.9 °F 44.4 °F 30.2 in SW 11 mph 13 mph 95% 0 in 47 W/m2
13:03 45.9 °F 44.8 °F 30.2 in West 0.9 mph 6 mph 96% 0.01 in 42 W/m2
13:08 46 °F 45 °F 30.2 in Calm   5 mph 96% 0.01 in 40 W/m2
13:13 46 °F 44.6 °F 30.2 in Calm   6 mph 95% 0.01 in 19 W/m2
13:18 46 °F 44.6 °F 30.2 in NW 4.9 mph 5 mph 95% 0.01 in 28 W/m2
13:23 46 °F 44.6 °F 30.2 in WSW 4 mph 14 mph 95% 0.01 in 37 W/m2
13:28 46 °F 44.6 °F 30.2 in Calm     95% 0.01 in 33 W/m2
13:33 46.2 °F 44.8 °F 30.2 in South 6 mph 9 mph 95% 0.01 in 35 W/m2
13:38 46.2 °F 44.8 °F 30.2 in Calm   1 mph 95% 0.01 in 42 W/m2
13:43 46.2 °F 44.8 °F 30.2 in Calm   8 mph 95% 0.01 in 40 W/m2
13:48 46.4 °F 45 °F 30.2 in Calm   9 mph 95% 0.01 in 33 W/m2
13:53 46.4 °F 45 °F 30.2 in Calm   4 mph 95% 0.01 in 33 W/m2
13:58 46.6 °F 45.1 °F 30.2 in Calm   5 mph 95% 0.01 in 33 W/m2
14:03 46.6 °F 45.1 °F 30.2 in Calm   1 mph 95% 0 in 26 W/m2
14:08 46.6 °F 45.1 °F 30.2 in Calm   10 mph 95% 0 in 26 W/m2
14:13 46.8 °F 45.3 °F 30.2 in South 8.1 mph 9 mph 95% 0 in 32 W/m2
14:18 46.8 °F 45.3 °F 30.2 in SW 4 mph 8 mph 95% 0 in 30 W/m2
14:23 46.9 °F 45.5 °F 30.2 in Calm     95% 0 in 18 W/m2
14:28 46.9 °F 45.5 °F 30.2 in Calm   2 mph 95% 0 in 12 W/m2
14:33 46.9 °F 45.5 °F 30.2 in Calm   3 mph 95% 0 in 16 W/m2
14:38 47.1 °F 45.5 °F 30.2 in WNW 8.9 mph 10 mph 94% 0 in 19 W/m2
14:43 47.1 °F 45.5 °F 30.2 in Calm   14 mph 94% 0 in 19 W/m2
14:48 47.3 °F 45.7 °F 30.2 in Calm   1 mph 94% 0 in 18 W/m2
14:53 47.3 °F 45.7 °F 30.2 in NW 2.9 mph 14 mph 94% 0 in 21 W/m2
14:58 47.3 °F 45.7 °F 30.2 in WSW 4 mph 7 mph 94% 0 in 16 W/m2
15:03 47.3 °F 45.7 °F 30.2 in Calm   7 mph 94% 0 in 19 W/m2
15:08 47.5 °F 45.9 °F 30.2 in Calm   1 mph 94% 0 in 46 W/m2
15:13 47.5 °F 45.9 °F 30.2 in Calm   5 mph 94% 0 in 46 W/m2
15:18 47.5 °F 45.9 °F 30.2 in Calm   6 mph 94% 0 in 35 W/m2
15:23 47.5 °F 45.9 °F 30.2 in Calm   1 mph 94% 0 in 30 W/m2
15:28 47.5 °F 45.9 °F 30.2 in Calm   8 mph 94% 0 in 28 W/m2
15:33 47.7 °F 46 °F 30.2 in Calm   1 mph 94% 0 in 26 W/m2
15:38 47.7 °F 46 °F 30.2 in Calm   8 mph 94% 0 in 23 W/m2
15:43 47.7 °F 46 °F 30.2 in Calm     94% 0 in 18 W/m2
15:48 47.7 °F 46 °F 30.2 in Calm   7 mph 94% 0 in 14 W/m2
15:53 47.7 °F 46 °F 30.2 in Calm   2 mph 94% 0 in 23 W/m2
15:58 47.5 °F 45.9 °F 30.2 in Calm   6 mph 94% 0 in 16 W/m2
16:03 47.5 °F 45.9 °F 30.2 in Calm   1 mph 94% 0 in 16 W/m2
16:08 47.5 °F 45.9 °F 30.2 in Calm   5 mph 94% 0 in 12 W/m2
16:13 47.5 °F 45.9 °F 30.2 in Calm     94% 0 in 12 W/m2
16:18 47.5 °F 45.9 °F 30.2 in Calm     94% 0 in 9 W/m2
16:23 47.5 °F 45.9 °F 30.2 in WSW 2.9 mph 8 mph 94% 0 in 7 W/m2
16:28 47.7 °F 46 °F 30.2 in Calm     94% 0 in 5 W/m2
16:33 47.7 °F 46 °F 30.2 in Calm   10 mph 94% 0 in 5 W/m2
16:38 47.7 °F 46 °F 30.2 in WSW 2 mph 2 mph 94% 0 in 5 W/m2
16:43 47.7 °F 46 °F 30.2 in Calm   7 mph 94% 0 in 0 W/m2
16:48 47.7 °F 46 °F 30.2 in Calm   1 mph 94% 0 in 0 W/m2
16:53 47.5 °F 46 °F 30.2 in Calm   12 mph 95% 0.01 in 0 W/m2
16:58 47.7 °F 46.2 °F 30.2 in Calm     95% 0.01 in 0 W/m2
17:03 47.7 °F 46 °F 30.2 in Calm   12 mph 94% 0.01 in 0 W/m2
17:08 47.7 °F 46.2 °F 30.2 in Calm     95% 0.01 in 0 W/m2
17:14 47.7 °F 46.2 °F 30.2 in Calm     95% 0.01 in 0 W/m2
17:19 47.7 °F 46.2 °F 30.2 in Calm   9 mph 95% 0.01 in 0 W/m2
17:24 47.7 °F 46.2 °F 30.2 in Calm     95% 0.01 in 0 W/m2
17:29 47.7 °F 46.2 °F 30.2 in Calm   2 mph 95% 0.01 in 0 W/m2
17:34 47.7 °F 46.2 °F 30.2 in Calm   5 mph 95% 0.01 in 0 W/m2
17:39 47.7 °F 46.2 °F 30.2 in Calm     95% 0.01 in 0 W/m2
17:44 47.7 °F 46.2 °F 30.2 in Calm   1 mph 95% 0.01 in 0 W/m2
17:49 47.7 °F 46.2 °F 30.2 in Calm     95% 0.01 in 0 W/m2
17:54 47.8 °F 46.4 °F 30.2 in Calm     95% 0.01 in 0 W/m2
17:59 47.8 °F 46.4 °F 30.2 in Calm     95% 0.01 in 0 W/m2
18:04 47.8 °F 46.4 °F 30.2 in Calm   5 mph 95% 0.01 in 0 W/m2
18:09 47.8 °F 46.4 °F 30.2 in Calm   8 mph 95% 0.01 in 0 W/m2
18:14 47.8 °F 46.4 °F 30.2 in Calm   1 mph 95% 0.01 in 0 W/m2
18:19 47.8 °F 46.4 °F 30.2 in Calm   6 mph 95% 0.01 in 0 W/m2
18:24 47.8 °F 46.4 °F 30.2 in Calm   2 mph 95% 0.01 in 0 W/m2
18:29 47.8 °F 46.4 °F 30.2 in Calm     95% 0.01 in 0 W/m2
18:35 47.8 °F 46.4 °F 30.2 in Calm   3 mph 95% 0.01 in 0 W/m2
18:40 47.8 °F 46.4 °F 30.2 in Calm     95% 0.01 in 0 W/m2
18:45 47.8 °F 46.4 °F 30.2 in Calm     95% 0.01 in 0 W/m2
18:50 47.8 °F 46.4 °F 30.2 in Calm   6 mph 95% 0.01 in 0 W/m2
18:55 47.8 °F 46.4 °F 30.2 in Calm   1 mph 95% 0 in 0 W/m2
19:00 47.8 °F 46.4 °F 30.2 in Calm     95% 0 in 0 W/m2
19:05 47.8 °F 46.4 °F 30.2 in Calm     95% 0 in 0 W/m2
19:10 48 °F 46.6 °F 30.2 in Calm     95% 0 in 0 W/m2
19:15 48 °F 46.6 °F 30.2 in Calm   1 mph 95% 0 in 0 W/m2
19:20 48 °F 46.6 °F 30.2 in Calm     95% 0.01 in 0 W/m2
19:25 48 °F 46.6 °F 30.2 in Calm   2 mph 95% 0.01 in 0 W/m2
19:30 48 °F 46.6 °F 30.3 in Calm     95% 0.01 in 0 W/m2
19:35 48 °F 46.6 °F 30.2 in Calm     95% 0.02 in 0 W/m2
19:40 48 °F 46.6 °F 30.3 in SSW 2 mph 9 mph 95% 0.02 in 0 W/m2
19:45 48.2 °F 46.8 °F 30.3 in Calm     95% 0.02 in 0 W/m2
19:50 48.2 °F 46.8 °F 30.3 in Calm   9 mph 95% 0.02 in 0 W/m2
19:55 48.2 °F 46.8 °F 30.3 in Calm   1 mph 95% 0.02 in 0 W/m2
20:00 48.2 °F 46.8 °F 30.3 in West 2.9 mph 6 mph 95% 0.02 in 0 W/m2
20:05 48.2 °F 46.8 °F 30.3 in Calm     95% 0.02 in 0 W/m2
20:10 48.2 °F 46.8 °F 30.3 in Calm   4 mph 95% 0.02 in 0 W/m2
20:15 48.2 °F 47.1 °F 30.3 in Calm   8 mph 96% 0.02 in 0 W/m2
20:20 48.2 °F 47.1 °F 30.3 in Calm     96% 0.02 in 0 W/m2
20:25 48.2 °F 47.1 °F 30.3 in West 8 mph 8 mph 96% 0.02 in 0 W/m2
20:30 48.2 °F 47.1 °F 30.3 in Calm     96% 0.02 in 0 W/m2
20:35 48.2 °F 47.1 °F 30.3 in Calm   2 mph 96% 0.01 in 0 W/m2
20:40 48.4 °F 47.3 °F 30.3 in Calm   8 mph 96% 0.01 in 0 W/m2
20:45 48.4 °F 47.3 °F 30.3 in Calm   4 mph 96% 0.02 in 0 W/m2
20:50 48.4 °F 47.3 °F 30.3 in WNW 6.9 mph 9 mph 96% 0.02 in 0 W/m2
20:55 48.4 °F 47.3 °F 30.3 in Calm   3 mph 96% 0.02 in 0 W/m2
21:00 48.4 °F 47.3 °F 30.3 in Calm     96% 0.02 in 0 W/m2
21:05 48.4 °F 47.3 °F 30.3 in Calm   2 mph 96% 0.02 in 0 W/m2
21:10 48.4 °F 47.3 °F 30.3 in Calm   3 mph 96% 0.01 in 0 W/m2
21:15 48.4 °F 47.3 °F 30.3 in Calm   3 mph 96% 0.01 in 0 W/m2
21:20 48.6 °F 47.5 °F 30.3 in West 6.9 mph 10 mph 96% 0.02 in 0 W/m2
21:25 48.6 °F 47.5 °F 30.3 in WNW 2 mph 6 mph 96% 0.02 in 0 W/m2
21:30 48.6 °F 47.5 °F 30.3 in Calm   9 mph 96% 0.02 in 0 W/m2
21:35 48.6 °F 47.5 °F 30.3 in Calm   7 mph 96% 0.02 in 0 W/m2
21:40 48.6 °F 47.5 °F 30.3 in Calm   9 mph 96% 0.02 in 0 W/m2
21:45 48.6 °F 47.5 °F 30.3 in Calm   13 mph 96% 0.01 in 0 W/m2
21:50 48.6 °F 47.5 °F 30.3 in Calm   3 mph 96% 0.01 in 0 W/m2
21:55 48.6 °F 47.5 °F 30.3 in Calm   1 mph 96% 0.01 in 0 W/m2
22:01 48.6 °F 47.5 °F 30.3 in Calm   3 mph 96% 0.01 in 0 W/m2
22:06 48.6 °F 47.5 °F 30.3 in Calm   7 mph 96% 0.02 in 0 W/m2
22:11 48.4 °F 47.3 °F 30.3 in West 2 mph 2 mph 96% 0.02 in 0 W/m2
22:16 48.4 °F 47.3 °F 30.3 in West 4 mph 6 mph 96% 0.02 in 0 W/m2
22:21 48 °F 46.9 °F 30.3 in West 2 mph 2 mph 96% 0.01 in 0 W/m2
22:26 48 °F 46.6 °F 30.3 in WNW 4 mph 9 mph 95% 0.02 in 0 W/m2
22:31 48 °F 46.6 °F 30.3 in Calm   8 mph 95% 0.02 in 0 W/m2
22:36 48 °F 46.6 °F 30.3 in West 0.9 mph 9 mph 95% 0.02 in 0 W/m2
22:41 48 °F 46.6 °F 30.3 in Calm     95% 0.02 in 0 W/m2
22:46 48 °F 46.6 °F 30.3 in WNW 2.9 mph 3 mph 95% 0.02 in 0 W/m2
22:51 48 °F 46.6 °F 30.3 in WNW 0.9 mph 9 mph 95% 0.02 in 0 W/m2
22:56 47.8 °F 46.2 °F 30.3 in Calm     94% 0.02 in 0 W/m2
23:01 47.7 °F 46 °F 30.3 in Calm   9 mph 94% 0.02 in 0 W/m2
23:06 47.5 °F 45.5 °F 30.3 in Calm   9 mph 93% 0.01 in 0 W/m2
23:11 46.9 °F 45 °F 30.3 in NNW 11 mph 15 mph 93% 0.01 in 0 W/m2
23:16 46.6 °F 44.4 °F 30.3 in Calm   7 mph 92% 0.01 in 0 W/m2
23:21 46.2 °F 44.1 °F 30.3 in Calm     92% 0.01 in 0 W/m2
23:26 46.2 °F 44.1 °F 30.3 in Calm     92% 0 in 0 W/m2
23:31 46 °F 43.9 °F 30.3 in Calm     92% 0 in 0 W/m2
23:36 45.9 °F 43.7 °F 30.3 in Calm   4 mph 92% 0 in 0 W/m2
23:41 45.7 °F 43.5 °F 30.3 in Calm   4 mph 92% 0 in 0 W/m2
23:46 45.3 °F 42.8 °F 30.3 in West 0.9 mph 3 mph 91% 0 in 0 W/m2
23:51 45.3 °F 42.8 °F 30.4 in Calm     91% 0 in 0 W/m2
23:56 45.1 °F 42.6 °F 30.4 in Calm     91% 0 in 0 W/m2
Juneau County Weather
Compliments of Weather Underground - 4 mb